sensor_id;sensor_type;location;lat;lon;timestamp;pressure;altitude;pressure_sealevel;temperature;humidity
5814;BME280;2933;52.302;8.134;2024-02-21T00:02:31;101331.63;;;8.27;80.59
5814;BME280;2933;52.302;8.134;2024-02-21T00:07:33;101312.34;;;8.25;80.33
5814;BME280;2933;52.302;8.134;2024-02-21T00:12:36;101309.09;;;8.23;79.98
5814;BME280;2933;52.302;8.134;2024-02-21T00:17:38;101293.34;;;8.26;79.96
5814;BME280;2933;52.302;8.134;2024-02-21T00:22:39;101284.75;;;8.24;79.80
5814;BME280;2933;52.302;8.134;2024-02-21T00:27:42;101273.78;;;8.26;79.87
5814;BME280;2933;52.302;8.134;2024-02-21T00:32:44;101267.41;;;8.27;79.53
5814;BME280;2933;52.302;8.134;2024-02-21T00:37:46;101274.59;;;8.26;79.87
5814;BME280;2933;52.302;8.134;2024-02-21T00:42:49;101271.13;;;8.26;79.89
5814;BME280;2933;52.302;8.134;2024-02-21T00:47:50;101263.38;;;8.29;79.38
5814;BME280;2933;52.302;8.134;2024-02-21T00:52:52;101260.09;;;8.22;79.53
5814;BME280;2933;52.302;8.134;2024-02-21T00:57:55;101275.16;;;8.28;79.22
5814;BME280;2933;52.302;8.134;2024-02-21T01:02:57;101267.41;;;8.27;80.05
5814;BME280;2933;52.302;8.134;2024-02-21T01:07:59;101260.91;;;8.23;80.01
5814;BME280;2933;52.302;8.134;2024-02-21T01:13:04;101257.97;;;8.24;79.88
5814;BME280;2933;52.302;8.134;2024-02-21T01:18:06;101252.63;;;8.24;80.06
5814;BME280;2933;52.302;8.134;2024-02-21T01:23:07;101248.66;;;8.27;79.87
5814;BME280;2933;52.302;8.134;2024-02-21T01:28:10;101244.63;;;8.29;79.64
5814;BME280;2933;52.302;8.134;2024-02-21T01:33:12;101234.16;;;8.23;79.95
5814;BME280;2933;52.302;8.134;2024-02-21T01:38:14;101222.13;;;8.25;79.99
5814;BME280;2933;52.302;8.134;2024-02-21T01:43:18;101222.38;;;8.24;79.93
5814;BME280;2933;52.302;8.134;2024-02-21T01:48:21;101208.19;;;8.23;80.05
5814;BME280;2933;52.302;8.134;2024-02-21T01:53:29;101203.94;;;8.27;79.48
5814;BME280;2933;52.302;8.134;2024-02-21T01:58:34;101179.63;;;8.29;79.86
5814;BME280;2933;52.302;8.134;2024-02-21T02:03:37;101180.13;;;8.26;79.68
5814;BME280;2933;52.302;8.134;2024-02-21T02:08:39;101177.19;;;8.27;79.49
5814;BME280;2933;52.302;8.134;2024-02-21T02:13:42;101166.50;;;8.27;79.90
5814;BME280;2933;52.302;8.134;2024-02-21T02:18:44;101167.56;;;8.31;79.49
5814;BME280;2933;52.302;8.134;2024-02-21T02:23:47;101158.50;;;8.32;79.18
5814;BME280;2933;52.302;8.134;2024-02-21T02:28:48;101132.25;;;8.29;79.11
5814;BME280;2933;52.302;8.134;2024-02-21T02:33:50;101110.81;;;8.29;79.85
5814;BME280;2933;52.302;8.134;2024-02-21T02:38:53;101092.63;;;8.31;79.37
5814;BME280;2933;52.302;8.134;2024-02-21T02:43:55;101081.16;;;8.31;79.78
5814;BME280;2933;52.302;8.134;2024-02-21T02:48:56;101092.63;;;8.26;79.29
5814;BME280;2933;52.302;8.134;2024-02-21T02:53:59;101084.31;;;8.23;79.95
5814;BME280;2933;52.302;8.134;2024-02-21T02:59:01;101097.41;;;8.24;79.51
5814;BME280;2933;52.302;8.134;2024-02-21T03:04:03;101105.72;;;8.23;79.84
5814;BME280;2933;52.302;8.134;2024-02-21T03:09:06;101111.06;;;8.23;79.88
5814;BME280;2933;52.302;8.134;2024-02-21T03:14:08;101109.22;;;8.28;79.64
5814;BME280;2933;52.302;8.134;2024-02-21T03:19:10;101111.38;;;8.26;80.08
5814;BME280;2933;52.302;8.134;2024-02-21T03:24:13;101112.19;;;8.27;80.13
5814;BME280;2933;52.302;8.134;2024-02-21T03:29:16;101112.97;;;8.27;79.39
5814;BME280;2933;52.302;8.134;2024-02-21T03:34:17;101109.75;;;8.25;79.44
5814;BME280;2933;52.302;8.134;2024-02-21T03:39:20;101118.31;;;8.27;79.29
5814;BME280;2933;52.302;8.134;2024-02-21T03:44:22;101113.78;;;8.28;79.61
5814;BME280;2933;52.302;8.134;2024-02-21T03:49:24;101118.84;;;8.24;80.31
5814;BME280;2933;52.302;8.134;2024-02-21T03:54:27;101118.00;;;8.24;80.18
5814;BME280;2933;52.302;8.134;2024-02-21T03:59:29;101115.09;;;8.25;79.79
5814;BME280;2933;52.302;8.134;2024-02-21T04:04:30;101102.78;;;8.24;79.81
5814;BME280;2933;52.302;8.134;2024-02-21T04:09:33;101094.75;;;8.24;80.22
5814;BME280;2933;52.302;8.134;2024-02-21T04:14:35;101089.66;;;8.23;80.36
5814;BME280;2933;52.302;8.134;2024-02-21T04:19:37;101091.53;;;8.22;81.30
5814;BME280;2933;52.302;8.134;2024-02-21T04:24:40;101093.66;;;8.15;81.69
5814;BME280;2933;52.302;8.134;2024-02-21T04:29:41;101084.56;;;8.11;81.52
5814;BME280;2933;52.302;8.134;2024-02-21T04:34:43;101073.56;;;8.03;82.29
5814;BME280;2933;52.302;8.134;2024-02-21T04:39:48;101071.44;;;8.10;83.19
5814;BME280;2933;52.302;8.134;2024-02-21T04:44:50;101080.50;;;7.99;83.46
5814;BME280;2933;52.302;8.134;2024-02-21T04:49:51;101084.00;;;7.99;84.15
5814;BME280;2933;52.302;8.134;2024-02-21T04:54:55;101079.16;;;7.91;84.48
5814;BME280;2933;52.302;8.134;2024-02-21T04:59:56;101071.38;;;7.84;84.96
5814;BME280;2933;52.302;8.134;2024-02-21T05:04:58;101075.41;;;7.87;85.39
5814;BME280;2933;52.302;8.134;2024-02-21T05:10:01;101066.84;;;7.90;85.21
5814;BME280;2933;52.302;8.134;2024-02-21T05:15:04;101053.47;;;7.90;84.90
5814;BME280;2933;52.302;8.134;2024-02-21T05:20:07;101048.94;;;7.91;84.14
5814;BME280;2933;52.302;8.134;2024-02-21T05:25:10;101044.66;;;7.95;83.51
5814;BME280;2933;52.302;8.134;2024-02-21T05:30:12;101040.13;;;7.95;84.39
5814;BME280;2933;52.302;8.134;2024-02-21T05:35:14;101037.16;;;8.02;83.30
5814;BME280;2933;52.302;8.134;2024-02-21T05:40:17;101023.28;;;8.05;82.63
5814;BME280;2933;52.302;8.134;2024-02-21T05:45:19;101020.59;;;8.05;82.66
5814;BME280;2933;52.302;8.134;2024-02-21T05:50:21;101025.94;;;8.00;82.26
5814;BME280;2933;52.302;8.134;2024-02-21T05:55:25;101024.59;;;8.02;82.30
5814;BME280;2933;52.302;8.134;2024-02-21T06:00:28;101009.13;;;8.09;82.49
5814;BME280;2933;52.302;8.134;2024-02-21T06:05:30;101025.16;;;8.09;82.01
5814;BME280;2933;52.302;8.134;2024-02-21T06:10:33;101025.94;;;8.10;81.64
5814;BME280;2933;52.302;8.134;2024-02-21T06:15:35;101025.72;;;8.11;81.75
5814;BME280;2933;52.302;8.134;2024-02-21T06:20:36;101027.31;;;8.12;81.60
5814;BME280;2933;52.302;8.134;2024-02-21T06:25:42;101017.13;;;8.14;80.68
5814;BME280;2933;52.302;8.134;2024-02-21T06:30:43;101005.88;;;8.17;80.89
5814;BME280;2933;52.302;8.134;2024-02-21T06:35:45;100999.19;;;8.10;80.92
5814;BME280;2933;52.302;8.134;2024-02-21T06:40:49;100994.38;;;8.12;80.82
5814;BME280;2933;52.302;8.134;2024-02-21T06:45:52;100985.56;;;8.11;80.76
5814;BME280;2933;52.302;8.134;2024-02-21T06:50:55;100972.19;;;8.16;80.42
5814;BME280;2933;52.302;8.134;2024-02-21T06:55:58;100972.44;;;8.10;80.78
5814;BME280;2933;52.302;8.134;2024-02-21T07:01:00;100974.31;;;8.14;80.98
5814;BME280;2933;52.302;8.134;2024-02-21T07:06:02;100968.44;;;8.12;79.88
5814;BME280;2933;52.302;8.134;2024-02-21T07:11:06;100977.56;;;8.11;80.68
5814;BME280;2933;52.302;8.134;2024-02-21T07:16:07;100975.94;;;8.20;79.72
5814;BME280;2933;52.302;8.134;2024-02-21T07:21:09;101000.03;;;8.20;79.46
5814;BME280;2933;52.302;8.134;2024-02-21T07:26:12;101002.16;;;8.18;79.93
5814;BME280;2933;52.302;8.134;2024-02-21T07:31:14;101008.88;;;8.26;79.31
5814;BME280;2933;52.302;8.134;2024-02-21T07:36:16;100996.84;;;8.28;79.51
5814;BME280;2933;52.302;8.134;2024-02-21T07:41:27;100994.69;;;8.30;79.19
5814;BME280;2933;52.302;8.134;2024-02-21T07:46:30;100989.88;;;8.37;78.23
5814;BME280;2933;52.302;8.134;2024-02-21T07:51:32;100990.69;;;8.38;77.70
5814;BME280;2933;52.302;8.134;2024-02-21T07:56:35;100977.56;;;8.36;78.07
5814;BME280;2933;52.302;8.134;2024-02-21T08:01:37;100980.78;;;8.38;78.41
5814;BME280;2933;52.302;8.134;2024-02-21T08:06:38;100972.75;;;8.38;77.47
5814;BME280;2933;52.302;8.134;2024-02-21T08:11:41;100973.81;;;8.42;77.44
5814;BME280;2933;52.302;8.134;2024-02-21T08:16:43;100959.91;;;8.40;77.81
5814;BME280;2933;52.302;8.134;2024-02-21T08:21:45;100945.44;;;8.41;78.08
5814;BME280;2933;52.302;8.134;2024-02-21T08:26:48;100940.09;;;8.46;76.79
5814;BME280;2933;52.302;8.134;2024-02-21T08:31:50;100941.41;;;8.54;76.91
5814;BME280;2933;52.302;8.134;2024-02-21T08:36:51;100941.69;;;8.57;76.66
5814;BME280;2933;52.302;8.134;2024-02-21T08:41:54;100937.09;;;8.63;76.76
5814;BME280;2933;52.302;8.134;2024-02-21T08:46:56;100923.47;;;8.64;76.51
5814;BME280;2933;52.302;8.134;2024-02-21T08:51:58;100925.56;;;8.78;76.65
5814;BME280;2933;52.302;8.134;2024-02-21T08:57:01;100920.22;;;8.78;75.74
5814;BME280;2933;52.302;8.134;2024-02-21T09:02:04;100911.38;;;8.82;75.61
5814;BME280;2933;52.302;8.134;2024-02-21T09:07:07;100916.97;;;8.86;75.18
5814;BME280;2933;52.302;8.134;2024-02-21T09:12:10;100916.41;;;8.99;74.92
5814;BME280;2933;52.302;8.134;2024-02-21T09:17:12;100913.16;;;9.02;75.26
5814;BME280;2933;52.302;8.134;2024-02-21T09:22:15;100914.22;;;9.06;74.66
5814;BME280;2933;52.302;8.134;2024-02-21T09:27:18;100909.88;;;9.15;73.95
5814;BME280;2933;52.302;8.134;2024-02-21T09:32:19;100904.22;;;9.21;72.42
5814;BME280;2933;52.302;8.134;2024-02-21T09:37:21;100890.00;;;9.26;71.82
5814;BME280;2933;52.302;8.134;2024-02-21T09:42:31;100871.81;;;9.18;72.32
5814;BME280;2933;52.302;8.134;2024-02-21T09:47:48;100863.44;;;9.29;72.01
5814;BME280;2933;52.302;8.134;2024-02-21T09:52:53;100854.00;;;9.42;70.48
5814;BME280;2933;52.302;8.134;2024-02-21T09:57:58;100852.44;;;9.31;70.87
5814;BME280;2933;52.302;8.134;2024-02-21T10:03:00;100842.69;;;9.45;70.64
5814;BME280;2933;52.302;8.134;2024-02-21T10:08:03;100852.84;;;9.53;70.16
5814;BME280;2933;52.302;8.134;2024-02-21T10:13:07;100841.63;;;9.46;70.87
5814;BME280;2933;52.302;8.134;2024-02-21T10:18:08;100857.16;;;9.49;69.54
5814;BME280;2933;52.302;8.134;2024-02-21T10:23:10;100840.03;;;9.45;69.44
5814;BME280;2933;52.302;8.134;2024-02-21T10:28:13;100849.63;;;9.51;69.56
5814;BME280;2933;52.302;8.134;2024-02-21T10:33:15;100834.03;;;9.58;69.38
5814;BME280;2933;52.302;8.134;2024-02-21T10:38:21;100830.50;;;9.63;68.77
5814;BME280;2933;52.302;8.134;2024-02-21T10:43:25;100808.50;;;9.66;69.40
5814;BME280;2933;52.302;8.134;2024-02-21T10:48:35;100800.16;;;9.67;68.86
5814;BME280;2933;52.302;8.134;2024-02-21T10:53:44;100785.41;;;9.70;68.21
5814;BME280;2933;52.302;8.134;2024-02-21T10:58:49;100780.25;;;9.78;68.48
5814;BME280;2933;52.302;8.134;2024-02-21T11:03:53;100777.69;;;9.63;67.74
5814;BME280;2933;52.302;8.134;2024-02-21T11:09:02;100766.81;;;9.78;66.89
5814;BME280;2933;52.302;8.134;2024-02-21T11:14:07;100747.19;;;9.83;67.07
5814;BME280;2933;52.302;8.134;2024-02-21T11:19:10;100732.34;;;9.90;66.31
5814;BME280;2933;52.302;8.134;2024-02-21T11:24:27;100714.66;;;9.89;66.09
5814;BME280;2933;52.302;8.134;2024-02-21T11:29:30;100709.88;;;9.86;65.86
5814;BME280;2933;52.302;8.134;2024-02-21T11:34:32;100706.28;;;9.96;64.19
5814;BME280;2933;52.302;8.134;2024-02-21T11:39:35;100701.47;;;9.93;64.58
5814;BME280;2933;52.302;8.134;2024-02-21T11:44:38;100689.31;;;10.00;63.75
5814;BME280;2933;52.302;8.134;2024-02-21T11:49:44;100678.34;;;9.97;64.13
5814;BME280;2933;52.302;8.134;2024-02-21T11:54:47;100669.75;;;10.00;63.54
5814;BME280;2933;52.302;8.134;2024-02-21T11:59:50;100665.53;;;9.94;64.74
5814;BME280;2933;52.302;8.134;2024-02-21T12:04:55;100660.19;;;9.89;66.42
5814;BME280;2933;52.302;8.134;2024-02-21T12:09:58;100668.34;;;9.79;66.85
5814;BME280;2933;52.302;8.134;2024-02-21T12:15:02;100661.00;;;9.66;66.79
5814;BME280;2933;52.302;8.134;2024-02-21T12:20:05;100639.03;;;9.64;66.83
5814;BME280;2933;52.302;8.134;2024-02-21T12:25:15;100635.63;;;9.58;68.54
5814;BME280;2933;52.302;8.134;2024-02-21T12:30:20;100618.59;;;9.44;69.74
5814;BME280;2933;52.302;8.134;2024-02-21T12:35:21;100591.56;;;9.40;69.70
5814;BME280;2933;52.302;8.134;2024-02-21T12:40:23;100570.91;;;9.41;70.49
5814;BME280;2933;52.302;8.134;2024-02-21T12:45:26;100578.44;;;9.39;70.05
5814;BME280;2933;52.302;8.134;2024-02-21T12:50:28;100567.28;;;9.32;71.16
5814;BME280;2933;52.302;8.134;2024-02-21T12:55:31;100550.59;;;9.35;71.30
5814;BME280;2933;52.302;8.134;2024-02-21T13:00:34;100525.44;;;9.31;70.99
5814;BME280;2933;52.302;8.134;2024-02-21T13:05:37;100511.16;;;9.40;70.78
5814;BME280;2933;52.302;8.134;2024-02-21T13:10:39;100479.72;;;9.46;71.21
5814;BME280;2933;52.302;8.134;2024-02-21T13:15:42;100435.50;;;9.43;70.81
5814;BME280;2933;52.302;8.134;2024-02-21T13:20:44;100444.72;;;9.56;71.24
5814;BME280;2933;52.302;8.134;2024-02-21T13:25:45;100459.81;;;9.52;70.92
5814;BME280;2933;52.302;8.134;2024-02-21T13:30:49;100428.19;;;9.49;70.06
5814;BME280;2933;52.302;8.134;2024-02-21T13:35:50;100404.66;;;9.46;70.03
5814;BME280;2933;52.302;8.134;2024-02-21T13:40:52;100396.63;;;9.46;69.83
5814;BME280;2933;52.302;8.134;2024-02-21T13:45:57;100401.97;;;9.46;69.62
5814;BME280;2933;52.302;8.134;2024-02-21T13:50:59;100410.03;;;9.46;69.73
5814;BME280;2933;52.302;8.134;2024-02-21T13:56:02;100402.34;;;9.39;70.02
5814;BME280;2933;52.302;8.134;2024-02-21T14:01:05;100385.31;;;9.49;69.95
5814;BME280;2933;52.302;8.134;2024-02-21T14:06:07;100378.34;;;9.48;69.71
5814;BME280;2933;52.302;8.134;2024-02-21T14:11:09;100358.19;;;9.50;69.53
5814;BME280;2933;52.302;8.134;2024-02-21T14:16:12;100358.38;;;9.40;68.68
5814;BME280;2933;52.302;8.134;2024-02-21T14:21:14;100340.53;;;9.49;69.38
5814;BME280;2933;52.302;8.134;2024-02-21T14:26:16;100328.34;;;9.57;68.54
5814;BME280;2933;52.302;8.134;2024-02-21T14:31:19;100317.22;;;9.50;68.41
5814;BME280;2933;52.302;8.134;2024-02-21T14:36:20;100287.22;;;9.48;68.14
5814;BME280;2933;52.302;8.134;2024-02-21T14:41:24;100254.78;;;9.63;66.80
5814;BME280;2933;52.302;8.134;2024-02-21T14:46:29;100225.22;;;9.68;66.02
5814;BME280;2933;52.302;8.134;2024-02-21T14:51:31;100218.34;;;9.62;66.93
5814;BME280;2933;52.302;8.134;2024-02-21T14:56:33;100195.47;;;9.51;67.48
5814;BME280;2933;52.302;8.134;2024-02-21T15:01:37;100188.34;;;9.60;67.69
5814;BME280;2933;52.302;8.134;2024-02-21T15:06:39;100197.59;;;9.68;66.56
5814;BME280;2933;52.302;8.134;2024-02-21T15:11:41;100179.63;;;9.68;66.50
5814;BME280;2933;52.302;8.134;2024-02-21T15:16:44;100138.69;;;9.63;66.55
5814;BME280;2933;52.302;8.134;2024-02-21T15:21:46;100134.13;;;9.63;66.57
5814;BME280;2933;52.302;8.134;2024-02-21T15:26:47;100137.41;;;9.60;66.02
5814;BME280;2933;52.302;8.134;2024-02-21T15:31:51;100117.03;;;9.59;66.00
5814;BME280;2933;52.302;8.134;2024-02-21T15:36:53;100105.50;;;9.58;66.81
5814;BME280;2933;52.302;8.134;2024-02-21T15:41:57;100088.63;;;9.44;66.40
5814;BME280;2933;52.302;8.134;2024-02-21T15:47:00;100080.00;;;9.47;66.82
5814;BME280;2933;52.302;8.134;2024-02-21T15:52:03;100068.59;;;9.55;65.52
5814;BME280;2933;52.302;8.134;2024-02-21T15:57:05;100057.44;;;9.35;66.01
5814;BME280;2933;52.302;8.134;2024-02-21T16:02:09;100062.31;;;9.33;66.98
5814;BME280;2933;52.302;8.134;2024-02-21T16:07:12;100064.59;;;9.26;66.39
5814;BME280;2933;52.302;8.134;2024-02-21T16:12:18;100046.72;;;9.21;66.61
5814;BME280;2933;52.302;8.134;2024-02-21T16:17:24;100051.41;;;9.16;66.03
5814;BME280;2933;52.302;8.134;2024-02-21T16:22:26;100040.06;;;9.19;66.99
5814;BME280;2933;52.302;8.134;2024-02-21T16:27:28;100047.13;;;9.15;66.24
5814;BME280;2933;52.302;8.134;2024-02-21T16:32:32;100032.66;;;9.16;66.49
5814;BME280;2933;52.302;8.134;2024-02-21T16:37:35;100024.31;;;9.17;66.73
5814;BME280;2933;52.302;8.134;2024-02-21T16:42:38;100023.50;;;9.17;66.28
5814;BME280;2933;52.302;8.134;2024-02-21T16:48:06;100009.09;;;9.13;65.81
5814;BME280;2933;52.302;8.134;2024-02-21T16:53:08;100007.34;;;9.22;65.17
5814;BME280;2933;52.302;8.134;2024-02-21T16:58:09;99998.31;;;9.18;65.29
5814;BME280;2933;52.302;8.134;2024-02-21T17:03:13;99995.63;;;9.18;65.95
5814;BME280;2933;52.302;8.134;2024-02-21T17:08:19;99975.50;;;9.20;65.71
5814;BME280;2933;52.302;8.134;2024-02-21T17:13:21;99973.81;;;9.24;64.61
5814;BME280;2933;52.302;8.134;2024-02-21T17:18:27;99958.44;;;9.16;65.28
5814;BME280;2933;52.302;8.134;2024-02-21T17:23:29;99945.53;;;9.18;64.84
5814;BME280;2933;52.302;8.134;2024-02-21T17:28:31;99932.50;;;9.25;65.48
5814;BME280;2933;52.302;8.134;2024-02-21T17:33:35;99917.31;;;9.21;65.53
5814;BME280;2933;52.302;8.134;2024-02-21T17:38:44;99915.63;;;9.25;65.46
5814;BME280;2933;52.302;8.134;2024-02-21T17:43:47;99897.28;;;9.32;64.34
5814;BME280;2933;52.302;8.134;2024-02-21T17:48:50;99888.75;;;9.30;64.47
5814;BME280;2933;52.302;8.134;2024-02-21T17:53:52;99881.41;;;9.22;66.74
5814;BME280;2933;52.302;8.134;2024-02-21T17:58:54;99877.56;;;9.14;67.12
5814;BME280;2933;52.302;8.134;2024-02-21T18:03:57;99873.91;;;8.97;69.77
5814;BME280;2933;52.302;8.134;2024-02-21T18:09:00;99859.53;;;8.93;69.66
5814;BME280;2933;52.302;8.134;2024-02-21T18:14:06;99834.66;;;8.79;70.39
5814;BME280;2933;52.302;8.134;2024-02-21T18:19:10;99822.25;;;8.69;71.61
5814;BME280;2933;52.302;8.134;2024-02-21T18:24:14;99807.88;;;8.51;73.12
5814;BME280;2933;52.302;8.134;2024-02-21T18:29:16;99801.84;;;8.46;73.24
5814;BME280;2933;52.302;8.134;2024-02-21T18:34:22;99795.81;;;8.40;75.09
5814;BME280;2933;52.302;8.134;2024-02-21T18:39:39;99786.09;;;8.31;75.21
5814;BME280;2933;52.302;8.134;2024-02-21T18:44:41;99767.72;;;8.24;74.73
5814;BME280;2933;52.302;8.134;2024-02-21T18:49:44;99751.75;;;8.19;76.13
5814;BME280;2933;52.302;8.134;2024-02-21T18:54:46;99740.50;;;8.22;75.43
5814;BME280;2933;52.302;8.134;2024-02-21T18:59:48;99709.56;;;8.16;76.45
5814;BME280;2933;52.302;8.134;2024-02-21T19:04:51;99698.69;;;8.13;76.41
5814;BME280;2933;52.302;8.134;2024-02-21T19:09:52;99690.97;;;8.11;75.40
5814;BME280;2933;52.302;8.134;2024-02-21T19:14:54;99697.50;;;8.05;76.62
5814;BME280;2933;52.302;8.134;2024-02-21T19:19:57;99696.53;;;8.01;76.39
5814;BME280;2933;52.302;8.134;2024-02-21T19:24:59;99670.97;;;7.95;77.50
5814;BME280;2933;52.302;8.134;2024-02-21T19:30:07;99677.50;;;7.89;77.29
5814;BME280;2933;52.302;8.134;2024-02-21T19:35:12;99674.84;;;7.89;77.04
5814;BME280;2933;52.302;8.134;2024-02-21T19:40:14;99659.06;;;7.88;76.75
5814;BME280;2933;52.302;8.134;2024-02-21T19:45:26;99648.19;;;7.84;76.95
5814;BME280;2933;52.302;8.134;2024-02-21T19:56:32;99617.47;;;7.81;76.94
5814;BME280;2933;52.302;8.134;2024-02-21T20:01:34;99606.59;;;7.78;76.93
5814;BME280;2933;52.302;8.134;2024-02-21T20:06:35;99599.69;;;7.77;77.10
5814;BME280;2933;52.302;8.134;2024-02-21T20:11:39;99581.19;;;7.67;78.16
5814;BME280;2933;52.302;8.134;2024-02-21T20:16:44;99577.13;;;7.69;78.58
5814;BME280;2933;52.302;8.134;2024-02-21T20:21:49;99563.47;;;7.57;79.55
5814;BME280;2933;52.302;8.134;2024-02-21T20:26:52;99542.69;;;7.54;80.16
5814;BME280;2933;52.302;8.134;2024-02-21T20:31:54;99538.22;;;7.50;80.22
5814;BME280;2933;52.302;8.134;2024-02-21T20:36:59;99526.28;;;7.47;81.21
5814;BME280;2933;52.302;8.134;2024-02-21T20:42:03;99521.19;;;7.46;81.33
5814;BME280;2933;52.302;8.134;2024-02-21T20:47:07;99506.28;;;7.45;81.18
5814;BME280;2933;52.302;8.134;2024-02-21T20:52:09;99504.47;;;7.54;80.45
5814;BME280;2933;52.302;8.134;2024-02-21T20:57:12;99501.22;;;7.57;80.54
5814;BME280;2933;52.302;8.134;2024-02-21T21:02:14;99498.56;;;7.57;80.29
5814;BME280;2933;52.302;8.134;2024-02-21T21:07:16;99491.13;;;7.54;80.75
5814;BME280;2933;52.302;8.134;2024-02-21T21:18:23;99473.81;;;7.51;82.42
5814;BME280;2933;52.302;8.134;2024-02-21T21:23:26;99463.63;;;7.53;82.83
5814;BME280;2933;52.302;8.134;2024-02-21T21:28:28;99457.78;;;7.51;83.31
5814;BME280;2933;52.302;8.134;2024-02-21T21:33:31;99450.66;;;7.47;83.47
5814;BME280;2933;52.302;8.134;2024-02-21T21:38:34;99444.34;;;7.43;83.87
5814;BME280;2933;52.302;8.134;2024-02-21T22:07:50;99388.75;;;7.45;85.96
5814;BME280;2933;52.302;8.134;2024-02-21T22:12:52;99380.72;;;7.45;85.40
5814;BME280;2933;52.302;8.134;2024-02-21T22:18:40;99355.88;;;7.44;86.29
5814;BME280;2933;52.302;8.134;2024-02-21T22:35:32;99331.13;;;7.52;86.53
5814;BME280;2933;52.302;8.134;2024-02-21T22:52:37;99305.22;;;7.53;86.97
5814;BME280;2933;52.302;8.134;2024-02-21T22:58:18;99294.53;;;7.53;87.28
5814;BME280;2933;52.302;8.134;2024-02-21T23:03:38;99290.75;;;7.54;87.66
5814;BME280;2933;52.302;8.134;2024-02-21T23:14:41;99253.78;;;7.47;88.47
5814;BME280;2933;52.302;8.134;2024-02-21T23:25:52;99227.97;;;7.43;88.61
5814;BME280;2933;52.302;8.134;2024-02-21T23:31:28;99223.13;;;7.45;89.08
5814;BME280;2933;52.302;8.134;2024-02-21T23:43:05;99209.63;;;7.50;88.44
5814;BME280;2933;52.302;8.134;2024-02-21T23:48:20;99194.88;;;7.52;88.69
5814;BME280;2933;52.302;8.134;2024-02-21T23:53:22;99181.03;;;7.50;88.81
5814;BME280;2933;52.302;8.134;2024-02-21T23:58:26;99168.63;;;7.54;88.78
